createdAt,value
2019-05-06T00:00:01.230Z,95549.75
2019-05-06T00:01:04.984Z,95553.27
2019-05-06T00:02:08.484Z,95547.16
2019-05-06T00:03:13.822Z,95545.44
2019-05-06T00:04:17.354Z,95546.94
2019-05-06T00:05:20.920Z,95543.30
2019-05-06T00:06:24.422Z,95545.77
2019-05-06T00:07:27.937Z,95545.77
2019-05-06T00:08:31.368Z,95546.86
2019-05-06T00:09:34.979Z,95543.56
2019-05-06T00:10:38.551Z,95543.51
2019-05-06T00:11:42.089Z,95547.28
2019-05-06T00:12:45.541Z,95542.20
2019-05-06T00:13:49.054Z,95548.18
2019-05-06T00:14:54.160Z,95554.48
2019-05-06T00:15:57.850Z,95544.45
2019-05-06T00:17:03.732Z,95547.16
2019-05-06T00:18:06.594Z,95552.20
2019-05-06T00:19:10.175Z,95549.06
2019-05-06T00:20:14.678Z,95548.87
2019-05-06T00:21:18.251Z,95544.73
2019-05-06T00:22:23.791Z,95545.70
2019-05-06T00:23:28.752Z,95545.08
2019-05-06T00:24:34.796Z,95545.61
2019-05-06T00:25:55.987Z,95546.38
2019-05-06T00:27:16.755Z,95550.22
2019-05-06T00:28:21.832Z,95548.50
2019-05-06T00:29:27.208Z,95552.77
2019-05-06T00:30:30.705Z,95544.05
2019-05-06T00:31:34.640Z,95552.91
2019-05-06T00:32:38.153Z,95551.52
2019-05-06T00:33:41.655Z,95545.00
2019-05-06T00:34:45.088Z,95546.26
2019-05-06T00:35:48.516Z,95550.36
2019-05-06T00:36:52.019Z,95546.86
2019-05-06T00:37:56.018Z,95548.38
2019-05-06T00:39:01.094Z,95547.47
2019-05-06T00:40:07.000Z,95547.00
2019-05-06T00:41:15.188Z,95547.20
2019-05-06T00:42:28.734Z,95551.96
2019-05-06T00:43:34.350Z,95548.18
2019-05-06T00:44:37.329Z,95554.12
2019-05-06T00:45:40.766Z,95551.81
2019-05-06T00:46:44.202Z,95552.09
2019-05-06T00:47:47.626Z,95552.22
2019-05-06T00:48:51.082Z,95549.80
2019-05-06T00:49:54.786Z,95551.19
2019-05-06T00:50:58.254Z,95549.19
2019-05-06T00:52:04.117Z,95549.73
2019-05-06T00:53:08.490Z,95548.70
2019-05-06T00:54:14.287Z,95551.40
2019-05-06T00:55:17.945Z,95543.36
2019-05-06T00:56:21.379Z,95548.80
2019-05-06T00:57:26.591Z,95547.69
2019-05-06T00:58:30.060Z,95551.52
2019-05-06T00:59:34.563Z,95551.60
2019-05-06T01:00:38.536Z,95551.32
2019-05-06T01:01:43.495Z,95549.31
2019-05-06T01:02:47.049Z,95554.66
2019-05-06T01:03:50.508Z,95556.45
2019-05-06T01:04:54.333Z,95552.73
2019-05-06T01:05:58.053Z,95554.25
2019-05-06T01:07:03.776Z,95555.84
2019-05-06T01:08:06.916Z,95554.73
2019-05-06T01:09:13.999Z,95556.16
2019-05-06T01:10:18.067Z,95547.32
2019-05-06T01:11:23.761Z,95553.93
2019-05-06T01:12:26.725Z,95556.19
2019-05-06T01:13:31.866Z,95558.25
2019-05-06T01:14:36.960Z,95560.86
2019-05-06T01:15:40.533Z,95554.95
2019-05-06T01:16:44.058Z,95559.08
2019-05-06T01:17:47.537Z,95555.84
2019-05-06T01:18:50.975Z,95552.14
2019-05-06T01:19:54.558Z,95557.23
2019-05-06T01:21:09.953Z,95559.02
2019-05-06T01:22:14.060Z,95556.53
2019-05-06T01:23:17.533Z,95558.73
2019-05-06T01:24:20.990Z,95556.58
2019-05-06T01:25:24.567Z,95562.14
2019-05-06T01:26:28.064Z,95561.66
2019-05-06T01:27:33.640Z,95566.66
2019-05-06T01:28:36.713Z,95567.16
2019-05-06T01:29:40.158Z,95567.00
2019-05-06T01:30:44.353Z,95563.53
2019-05-06T01:31:47.990Z,95567.44
2019-05-06T01:32:51.458Z,95564.68
2019-05-06T01:33:54.958Z,95561.66
2019-05-06T01:34:58.434Z,95566.53
2019-05-06T01:36:01.912Z,95566.66
2019-05-06T01:37:05.474Z,95566.11
2019-05-06T01:38:26.661Z,95566.88
2019-05-06T01:39:31.726Z,95563.92
2019-05-06T01:40:39.581Z,95563.86
2019-05-06T01:41:44.815Z,95571.67
2019-05-06T01:42:58.451Z,95567.13
2019-05-06T01:44:04.105Z,95568.02
2019-05-06T01:45:07.896Z,95567.52
2019-05-06T01:46:11.491Z,95565.80
2019-05-06T01:47:14.917Z,95575.55
2019-05-06T01:48:19.997Z,95571.42
2019-05-06T01:49:24.499Z,95573.70
2019-05-06T01:50:28.344Z,95574.25
2019-05-06T01:51:31.846Z,95577.74
2019-05-06T01:52:35.409Z,95577.27
2019-05-06T01:53:38.863Z,95577.14
2019-05-06T01:54:43.452Z,95570.34
2019-05-06T01:55:46.922Z,95576.21
2019-05-06T01:56:50.444Z,95573.38
2019-05-06T01:57:54.551Z,95573.80
2019-05-06T01:58:58.071Z,95578.81
2019-05-06T02:00:01.647Z,95572.97
2019-05-06T02:01:05.251Z,95579.28
2019-05-06T02:02:08.816Z,95570.77
2019-05-06T02:03:12.246Z,95577.28
2019-05-06T02:04:15.813Z,95571.91
2019-05-06T02:05:19.312Z,95574.45
2019-05-06T02:06:24.806Z,95576.52
2019-05-06T02:07:28.067Z,95574.87
2019-05-06T02:08:33.576Z,95576.81
2019-05-06T02:09:36.793Z,95579.13
2019-05-06T02:10:40.221Z,95577.72
2019-05-06T02:11:45.174Z,95581.78
2019-05-06T02:12:48.906Z,95579.91
2019-05-06T02:13:53.792Z,95582.20
2019-05-06T02:14:57.334Z,95578.41
2019-05-06T02:16:00.905Z,95581.61
2019-05-06T02:17:04.513Z,95580.91
2019-05-06T02:18:07.941Z,95583.40
2019-05-06T02:19:11.436Z,95578.88
2019-05-06T02:20:15.008Z,95592.45
2019-05-06T02:21:29.013Z,95581.97
2019-05-06T02:22:39.814Z,95584.40
2019-05-06T02:24:00.981Z,95589.70
2019-05-06T02:25:07.990Z,95580.20
2019-05-06T02:26:11.414Z,95586.17
2019-05-06T02:27:14.941Z,95587.55
2019-05-06T02:28:18.372Z,95589.13
2019-05-06T02:29:24.698Z,95586.77
2019-05-06T02:30:36.713Z,95591.63
2019-05-06T02:31:46.017Z,95598.02
2019-05-06T02:33:09.155Z,95601.39
2019-05-06T02:34:17.180Z,95591.04
2019-05-06T02:35:26.420Z,95593.10
2019-05-06T02:36:34.244Z,95595.36
2019-05-06T02:37:41.311Z,95598.73
2019-05-06T02:38:50.550Z,95598.73
2019-05-06T02:39:53.149Z,95598.38
2019-05-06T02:40:55.492Z,95603.33
2019-05-06T02:41:58.957Z,95598.38
2019-05-06T02:43:03.460Z,95603.81
2019-05-06T02:44:10.231Z,95601.80
2019-05-06T02:45:12.791Z,95606.52
2019-05-06T02:46:16.197Z,95604.34
2019-05-06T02:47:30.044Z,95597.48
2019-05-06T02:48:49.766Z,95599.42
2019-05-06T02:49:54.904Z,95599.73
2019-05-06T02:50:59.980Z,95603.77
2019-05-06T02:52:03.494Z,95608.78
2019-05-06T02:53:06.918Z,95613.70
2019-05-06T02:54:13.375Z,95611.29
2019-05-06T02:55:15.741Z,95607.19
2019-05-06T02:56:19.177Z,95607.11
2019-05-06T02:57:23.853Z,95610.67
2019-05-06T02:58:27.468Z,95610.87
2019-05-06T02:59:33.103Z,95608.42
2019-05-06T03:00:36.118Z,95606.72
2019-05-06T03:01:39.621Z,95610.58
2019-05-06T03:02:47.106Z,95613.94
2019-05-06T03:03:48.444Z,95612.57
2019-05-06T03:04:52.873Z,95610.21
2019-05-06T03:05:56.494Z,95609.13
2019-05-06T03:07:03.418Z,95610.09
2019-05-06T03:08:05.146Z,95610.50
2019-05-06T03:09:08.723Z,95604.78
2019-05-06T03:10:17.524Z,95618.48
2019-05-06T03:11:23.756Z,95612.74
2019-05-06T03:12:26.453Z,95617.14
2019-05-06T03:13:29.879Z,95618.25
2019-05-06T03:14:34.667Z,95619.40
2019-05-06T03:15:38.398Z,95617.44
2019-05-06T03:16:43.974Z,95621.47
2019-05-06T03:17:47.274Z,95620.04
2019-05-06T03:18:53.101Z,95627.98
2019-05-06T03:19:57.480Z,95625.18
2019-05-06T03:21:05.556Z,95624.95
2019-05-06T03:22:27.877Z,95626.67
2019-05-06T03:23:34.780Z,95622.89
2019-05-06T03:24:45.950Z,95629.20
2019-05-06T03:25:49.454Z,95626.37
2019-05-06T03:26:57.065Z,95624.12
2019-05-06T03:27:59.180Z,95628.69
2019-05-06T03:29:03.098Z,95627.31
2019-05-06T03:30:07.891Z,95627.38
2019-05-06T03:31:15.662Z,95634.12
2019-05-06T03:32:23.105Z,95627.91
2019-05-06T03:33:44.681Z,95630.39
2019-05-06T03:34:48.849Z,95630.98
2019-05-06T03:35:44.309Z,95630.51
2019-05-06T03:36:41.060Z,95635.38
2019-05-06T03:37:44.072Z,95631.81
2019-05-06T03:38:47.870Z,95629.75
2019-05-06T03:39:52.851Z,95635.17
2019-05-06T03:40:56.830Z,95629.11
2019-05-06T03:42:00.253Z,95634.78
2019-05-06T03:43:03.767Z,95636.84
2019-05-06T03:44:07.262Z,95637.14
2019-05-06T03:45:13.312Z,95632.40
2019-05-06T03:46:23.217Z,95640.87
2019-05-06T03:47:28.088Z,95637.73
2019-05-06T03:48:36.001Z,95634.47
2019-05-06T03:49:42.572Z,95643.11
2019-05-06T03:50:46.385Z,95638.80
2019-05-06T03:51:49.829Z,95643.28
2019-05-06T03:52:56.346Z,95641.52
2019-05-06T03:54:02.803Z,95644.82
2019-05-06T03:55:05.616Z,95644.59
2019-05-06T03:56:09.937Z,95640.38
2019-05-06T03:57:14.309Z,95640.16
2019-05-06T03:58:26.353Z,95643.71
2019-05-06T03:59:25.915Z,95644.48
2019-05-06T04:00:29.346Z,95642.64
2019-05-06T04:01:33.683Z,95646.19
2019-05-06T04:02:39.720Z,95643.23
2019-05-06T04:03:48.712Z,95648.91
2019-05-06T04:04:47.839Z,95645.00
2019-05-06T04:05:52.540Z,95646.92
2019-05-06T04:06:57.504Z,95649.80
2019-05-06T04:08:03.860Z,95649.15
2019-05-06T04:09:07.642Z,95650.57
2019-05-06T04:10:13.641Z,95646.55
2019-05-06T04:11:18.629Z,95656.54
2019-05-06T04:12:23.531Z,95651.45
2019-05-06T04:13:27.550Z,95651.98
2019-05-06T04:14:33.771Z,95656.00
2019-05-06T04:15:48.244Z,95651.41
2019-05-06T04:16:53.559Z,95657.08
2019-05-06T04:18:03.874Z,95663.47
2019-05-06T04:19:13.100Z,95661.21
2019-05-06T04:20:34.552Z,95661.21
2019-05-06T04:21:45.846Z,95660.52
2019-05-06T04:22:53.600Z,95663.70
2019-05-06T04:24:04.166Z,95657.54
2019-05-06T04:25:24.957Z,95660.06
2019-05-06T04:26:35.981Z,95662.52
2019-05-06T04:27:53.728Z,95670.64
2019-05-06T04:28:57.385Z,95667.38
2019-05-06T04:30:04.284Z,95666.31
2019-05-06T04:31:06.683Z,95665.89
2019-05-06T04:32:10.280Z,95667.31
2019-05-06T04:33:17.301Z,95665.05
2019-05-06T04:34:19.979Z,95670.26
2019-05-06T04:35:24.316Z,95663.55
2019-05-06T04:36:28.191Z,95667.88
2019-05-06T04:37:33.911Z,95669.03
2019-05-06T04:38:37.530Z,95665.13
2019-05-06T04:39:43.418Z,95669.22
2019-05-06T04:40:47.189Z,95664.77
2019-05-06T04:41:53.625Z,95671.02
2019-05-06T04:42:56.083Z,95672.78
2019-05-06T04:44:02.732Z,95671.67
2019-05-06T04:45:05.706Z,95672.13
2019-05-06T04:46:09.291Z,95665.70
2019-05-06T04:47:14.913Z,95680.63
2019-05-06T04:48:18.164Z,95678.25
2019-05-06T04:49:23.699Z,95674.23
2019-05-06T04:50:26.976Z,95677.64
2019-05-06T04:51:32.815Z,95678.98
2019-05-06T04:52:35.763Z,95682.13
2019-05-06T04:53:39.397Z,95676.38
2019-05-06T04:54:44.095Z,95679.41
2019-05-06T04:55:47.736Z,95678.11
2019-05-06T04:56:53.651Z,95681.16
2019-05-06T04:57:57.387Z,95682.24
2019-05-06T04:59:05.761Z,95684.96
2019-05-06T05:00:07.332Z,95680.74
2019-05-06T05:01:13.003Z,95680.41
2019-05-06T05:02:16.766Z,95686.34
2019-05-06T05:03:22.775Z,95683.36
2019-05-06T05:04:32.133Z,95684.77
2019-05-06T05:05:33.102Z,95683.12
2019-05-06T05:06:36.095Z,95684.38
2019-05-06T05:07:39.606Z,95693.08
2019-05-06T05:08:43.391Z,95689.71
2019-05-06T05:09:46.956Z,95690.90
2019-05-06T05:10:53.109Z,95689.59
2019-05-06T05:11:58.462Z,95694.72
2019-05-06T05:13:06.391Z,95690.28
2019-05-06T05:14:14.275Z,95696.53
2019-05-06T05:15:35.577Z,95684.08
2019-05-06T05:16:43.587Z,95697.17
2019-05-06T05:18:04.741Z,95692.77
2019-05-06T05:19:12.629Z,95695.37
2019-05-06T05:20:16.194Z,95692.20
2019-05-06T05:21:19.769Z,95695.07
2019-05-06T05:22:23.217Z,95690.66
2019-05-06T05:23:26.823Z,95695.45
2019-05-06T05:24:31.723Z,95693.81
2019-05-06T05:25:35.278Z,95693.69
2019-05-06T05:26:39.135Z,95693.19
2019-05-06T05:27:42.636Z,95697.09
2019-05-06T05:28:46.140Z,95701.54
2019-05-06T05:29:49.732Z,95697.52
2019-05-06T05:30:53.370Z,95703.45
2019-05-06T05:31:56.867Z,95700.81
2019-05-06T05:33:02.494Z,95700.59
2019-05-06T05:34:05.551Z,95702.72
2019-05-06T05:35:09.047Z,95696.22
2019-05-06T05:36:12.624Z,95698.36
2019-05-06T05:37:16.390Z,95701.58
2019-05-06T05:38:20.063Z,95701.81
2019-05-06T05:39:23.847Z,95705.14
2019-05-06T05:40:27.712Z,95707.39
2019-05-06T05:41:33.172Z,95705.70
2019-05-06T05:42:38.224Z,95705.16
2019-05-06T05:43:43.939Z,95706.05
2019-05-06T05:44:49.222Z,95713.33
2019-05-06T05:45:52.986Z,95709.19
2019-05-06T05:46:56.551Z,95715.52
2019-05-06T05:48:02.842Z,95712.14
2019-05-06T05:49:08.303Z,95711.26
2019-05-06T05:50:16.418Z,95710.00
2019-05-06T05:51:19.891Z,95716.40
2019-05-06T05:52:23.760Z,95715.90
2019-05-06T05:53:28.434Z,95709.73
2019-05-06T05:54:33.188Z,95717.20
2019-05-06T05:55:36.875Z,95714.25
2019-05-06T05:56:40.434Z,95718.63
2019-05-06T05:57:44.107Z,95719.22
2019-05-06T05:58:47.785Z,95711.69
2019-05-06T05:59:52.849Z,95713.80
2019-05-06T06:00:56.527Z,95714.83
2019-05-06T06:02:00.095Z,95715.77
2019-05-06T06:03:06.862Z,95714.77
2019-05-06T06:04:08.967Z,95715.27
2019-05-06T06:05:12.539Z,95714.08
2019-05-06T06:06:16.468Z,95714.30
2019-05-06T06:07:20.047Z,95717.75
2019-05-06T06:08:24.801Z,95715.69
2019-05-06T06:09:32.763Z,95714.30
2019-05-06T06:10:42.475Z,95717.99
2019-05-06T06:11:50.298Z,95715.34
2019-05-06T06:12:54.938Z,95718.13
2019-05-06T06:14:00.164Z,95712.88
2019-05-06T06:15:06.476Z,95720.97
2019-05-06T06:16:17.346Z,95719.23
2019-05-06T06:17:32.573Z,95721.56
2019-05-06T06:18:53.698Z,95719.19
2019-05-06T06:20:07.599Z,95719.97
2019-05-06T06:21:24.707Z,95717.61
2019-05-06T06:22:25.805Z,95718.42
2019-05-06T06:23:32.418Z,95725.78
2019-05-06T06:24:36.590Z,95725.95
2019-05-06T06:25:42.243Z,95722.23
2019-05-06T06:26:45.667Z,95722.20
2019-05-06T06:27:52.087Z,95724.88
2019-05-06T06:28:55.820Z,95716.69
2019-05-06T06:29:59.607Z,95719.07
2019-05-06T06:31:19.679Z,95715.58
2019-05-06T06:32:24.856Z,95717.77
2019-05-06T06:33:28.415Z,95720.44
2019-05-06T06:34:42.725Z,95709.53
2019-05-06T06:35:51.992Z,95718.44
2019-05-06T06:36:57.277Z,95716.59
2019-05-06T06:38:02.794Z,95715.23
2019-05-06T06:39:12.488Z,95711.41
2019-05-06T06:40:18.109Z,95716.38
2019-05-06T06:41:22.796Z,95716.73
2019-05-06T06:42:26.495Z,95715.27
2019-05-06T06:43:32.290Z,95715.20
2019-05-06T06:44:36.505Z,95713.95
2019-05-06T06:45:42.040Z,95714.88
2019-05-06T06:46:45.625Z,95711.41
2019-05-06T06:47:49.234Z,95713.45
2019-05-06T06:48:52.823Z,95709.50
2019-05-06T06:49:56.229Z,95713.12
2019-05-06T06:51:00.196Z,95714.56
2019-05-06T06:52:10.511Z,95709.03
2019-05-06T06:53:09.017Z,95708.80
2019-05-06T06:54:12.501Z,95713.61
2019-05-06T06:55:18.455Z,95712.52
2019-05-06T06:56:26.184Z,95713.78
2019-05-06T06:57:43.140Z,95710.95
2019-05-06T06:59:08.268Z,95709.16
2019-05-06T07:00:33.600Z,95713.91
2019-05-06T07:01:42.323Z,95714.23
2019-05-06T07:02:53.400Z,95716.33
2019-05-06T07:03:59.702Z,95716.13
2019-05-06T07:05:24.429Z,95713.70
2019-05-06T07:06:18.636Z,95721.98
2019-05-06T07:07:23.703Z,95717.63
2019-05-06T07:08:36.595Z,95719.30
2019-05-06T07:09:32.463Z,95724.52
2019-05-06T07:10:44.831Z,95726.42
2019-05-06T07:11:48.260Z,95716.87
2019-05-06T07:12:53.259Z,95719.16
2019-05-06T07:13:56.967Z,95722.31
2019-05-06T07:15:02.261Z,95721.61
2019-05-06T07:16:05.693Z,95717.64
2019-05-06T07:17:09.200Z,95713.92
2019-05-06T07:18:13.666Z,95714.73
2019-05-06T07:19:18.964Z,95710.69
2019-05-06T07:20:24.133Z,95712.97
2019-05-06T07:21:43.334Z,95714.19
2019-05-06T07:22:45.960Z,95714.06
2019-05-06T07:23:49.491Z,95720.86
2019-05-06T07:24:52.930Z,95721.27
2019-05-06T07:25:56.626Z,95715.58
2019-05-06T07:27:03.037Z,95716.48
2019-05-06T07:28:06.545Z,95716.72
2019-05-06T07:29:15.296Z,95718.80
2019-05-06T07:30:15.304Z,95718.20
2019-05-06T07:31:23.775Z,95719.02
2019-05-06T07:32:24.084Z,95723.48
2019-05-06T07:33:27.656Z,95720.52
2019-05-06T07:34:32.193Z,95728.48
2019-05-06T07:35:40.424Z,95729.03
2019-05-06T07:36:42.979Z,95723.07
2019-05-06T07:37:46.312Z,95726.28
2019-05-06T07:38:49.810Z,95720.97
2019-05-06T07:39:53.399Z,95723.31
2019-05-06T07:40:58.466Z,95725.38
2019-05-06T07:42:03.534Z,95724.34
2019-05-06T07:43:22.031Z,95725.66
2019-05-06T07:44:43.145Z,95722.50
2019-05-06T07:45:48.195Z,95722.83
2019-05-06T07:46:56.351Z,95721.33
2019-05-06T07:48:04.381Z,95721.38
2019-05-06T07:49:07.803Z,95724.30
2019-05-06T07:50:13.045Z,95721.00
2019-05-06T07:51:16.664Z,95723.75
2019-05-06T07:52:20.096Z,95724.79
2019-05-06T07:53:23.598Z,95719.67
2019-05-06T07:54:27.090Z,95723.59
2019-05-06T07:55:32.623Z,95720.23
2019-05-06T07:56:35.817Z,95720.30
2019-05-06T07:57:39.332Z,95720.07
2019-05-06T07:58:43.485Z,95716.97
2019-05-06T07:59:47.104Z,95715.11
2019-05-06T08:00:52.473Z,95714.08
2019-05-06T08:01:55.694Z,95712.41
2019-05-06T08:02:59.189Z,95719.43
2019-05-06T08:04:02.620Z,95710.05
2019-05-06T08:05:07.772Z,95720.20
2019-05-06T08:06:13.289Z,95715.71
2019-05-06T08:07:16.486Z,95722.56
2019-05-06T08:08:19.991Z,95721.92
2019-05-06T08:09:23.594Z,95718.25
2019-05-06T08:10:27.203Z,95724.39
2019-05-06T08:11:32.847Z,95717.84
2019-05-06T08:12:35.861Z,95725.95
2019-05-06T08:13:39.353Z,95716.40
2019-05-06T08:14:43.428Z,95721.02
2019-05-06T08:15:47.159Z,95716.28
2019-05-06T08:17:02.235Z,95716.64
2019-05-06T08:18:05.969Z,95712.86
2019-05-06T08:19:09.462Z,95710.89
2019-05-06T08:20:13.436Z,95713.45
2019-05-06T08:21:18.589Z,95710.34
2019-05-06T08:22:33.362Z,95711.84
2019-05-06T08:23:42.820Z,95704.80
2019-05-06T08:24:46.376Z,95707.79
2019-05-06T08:25:54.377Z,95707.79
2019-05-06T08:26:56.329Z,95709.76
2019-05-06T08:27:59.759Z,95707.09
2019-05-06T08:29:03.320Z,95701.72
2019-05-06T08:30:08.455Z,95703.08
2019-05-06T08:31:12.817Z,95705.98
2019-05-06T08:32:16.320Z,95704.68
2019-05-06T08:33:21.864Z,95701.87
2019-05-06T08:34:24.972Z,95710.31
2019-05-06T08:35:28.469Z,95710.31
2019-05-06T08:36:42.797Z,95712.53
2019-05-06T08:37:47.718Z,95707.55
2019-05-06T08:39:04.435Z,95709.31
2019-05-06T08:40:09.003Z,95702.20
2019-05-06T08:41:12.455Z,95702.20
2019-05-06T08:42:15.979Z,95703.73
2019-05-06T08:43:19.533Z,95703.30
2019-05-06T08:44:22.968Z,95706.34
2019-05-06T08:45:26.473Z,95705.42
2019-05-06T08:46:32.444Z,95705.42
2019-05-06T08:47:35.178Z,95702.14
2019-05-06T08:48:38.603Z,95700.56
2019-05-06T08:50:02.455Z,95690.84
2019-05-06T08:51:09.204Z,95692.94
2019-05-06T08:52:14.379Z,95692.81
2019-05-06T08:53:23.540Z,95692.48
2019-05-06T08:54:29.282Z,95697.12
2019-05-06T08:55:34.350Z,95693.10
2019-05-06T08:56:37.854Z,95700.11
2019-05-06T08:57:42.067Z,95694.39
2019-05-06T08:58:46.113Z,95697.48
2019-05-06T08:59:49.551Z,95688.93
2019-05-06T09:01:09.204Z,95684.73
2019-05-06T09:02:13.758Z,95683.88
2019-05-06T09:03:17.521Z,95683.88
2019-05-06T09:04:22.762Z,95691.80
2019-05-06T09:05:26.166Z,95688.38
2019-05-06T09:06:33.022Z,95686.05
2019-05-06T09:07:34.747Z,95692.75
2019-05-06T09:08:38.194Z,95694.81
2019-05-06T09:09:42.088Z,95697.32
2019-05-06T09:10:45.620Z,95694.27
2019-05-06T09:11:49.192Z,95689.68
2019-05-06T09:12:52.768Z,95689.68
2019-05-06T09:13:56.348Z,95696.02
2019-05-06T09:14:59.787Z,95693.45
2019-05-06T09:16:03.650Z,95694.10
2019-05-06T09:17:07.295Z,95695.81
2019-05-06T09:18:12.426Z,95685.36
2019-05-06T09:19:16.022Z,95685.36
2019-05-06T09:20:19.513Z,95697.72
2019-05-06T09:21:23.159Z,95697.72
2019-05-06T09:22:26.592Z,95689.28
2019-05-06T09:23:30.024Z,95697.02
2019-05-06T09:24:33.553Z,95693.07
2019-05-06T09:25:37.062Z,95693.07
2019-05-06T09:27:00.461Z,95694.66
2019-05-06T09:28:17.546Z,95691.77
2019-05-06T09:29:34.458Z,95691.64
2019-05-06T09:30:39.872Z,95691.64
2019-05-06T09:31:47.940Z,95691.09
2019-05-06T09:32:52.156Z,95694.11
2019-05-06T09:34:05.867Z,95690.73
2019-05-06T09:35:09.811Z,95690.73
2019-05-06T09:36:13.369Z,95689.23
2019-05-06T09:37:23.542Z,95691.67
2019-05-06T09:38:26.102Z,95686.67
2019-05-06T09:39:29.549Z,95686.67
2019-05-06T09:40:32.984Z,95690.51
2019-05-06T09:41:36.570Z,95688.16
2019-05-06T09:42:40.082Z,95688.16
2019-05-06T09:43:43.614Z,95688.91
2019-05-06T09:44:50.505Z,95695.31
2019-05-06T09:45:53.262Z,95688.81
2019-05-06T09:46:56.693Z,95692.30
2019-05-06T09:48:04.469Z,95692.05
2019-05-06T09:49:09.514Z,95692.47
2019-05-06T09:50:15.635Z,95693.94
2019-05-06T09:51:19.133Z,95690.05
2019-05-06T09:52:23.324Z,95694.91
2019-05-06T09:53:28.512Z,95694.56
2019-05-06T09:54:33.589Z,95695.25
2019-05-06T09:55:43.002Z,95697.12
2019-05-06T09:56:53.170Z,95697.33
2019-05-06T09:57:57.833Z,95692.77
2019-05-06T09:59:02.234Z,95691.03
2019-05-06T10:00:07.776Z,95684.82
2019-05-06T10:01:13.141Z,95693.98
2019-05-06T10:02:16.717Z,95691.00
2019-05-06T10:03:22.506Z,95691.78
2019-05-06T10:04:25.297Z,95686.14
2019-05-06T10:05:28.810Z,95687.22
2019-05-06T10:06:32.818Z,95689.13
2019-05-06T10:07:36.336Z,95681.13
2019-05-06T10:08:39.851Z,95684.30
2019-05-06T10:09:43.650Z,95681.45
2019-05-06T10:10:58.653Z,95688.63
2019-05-06T10:11:52.611Z,95677.17
2019-05-06T10:12:56.324Z,95681.68
2019-05-06T10:13:59.895Z,95681.95
2019-05-06T10:15:03.866Z,95681.95
2019-05-06T10:16:07.463Z,95681.28
2019-05-06T10:17:13.010Z,95674.27
2019-05-06T10:18:16.232Z,95688.83
2019-05-06T10:19:19.797Z,95687.20
2019-05-06T10:20:23.304Z,95684.19
2019-05-06T10:21:26.826Z,95684.92
2019-05-06T10:22:32.285Z,95681.69
2019-05-06T10:23:35.531Z,95684.29
2019-05-06T10:24:38.972Z,95677.81
2019-05-06T10:25:43.929Z,95686.42
2019-05-06T10:26:49.103Z,95677.93
2019-05-06T10:27:57.197Z,95678.71
2019-05-06T10:29:03.780Z,95679.17
2019-05-06T10:30:13.180Z,95679.17
2019-05-06T10:31:17.486Z,95684.89
2019-05-06T10:32:25.313Z,95685.42
2019-05-06T10:33:32.433Z,95687.54
2019-05-06T10:34:35.729Z,95689.06
2019-05-06T10:35:39.391Z,95694.59
2019-05-06T10:37:19.098Z,95690.84
2019-05-06T10:38:42.453Z,95697.61
2019-05-06T10:39:48.969Z,95691.82
2019-05-06T10:41:04.064Z,95689.54
2019-05-06T10:42:13.086Z,95696.38
2019-05-06T10:43:28.491Z,95696.56
2019-05-06T10:44:34.965Z,95690.30
2019-05-06T10:45:38.522Z,95689.20
2019-05-06T10:46:43.032Z,95693.66
2019-05-06T10:47:46.599Z,95693.66
2019-05-06T10:48:50.026Z,95691.67
2019-05-06T10:49:53.466Z,95688.70
2019-05-06T10:51:03.425Z,95701.23
2019-05-06T10:52:26.325Z,95701.23
2019-05-06T10:53:29.819Z,95690.41
2019-05-06T10:54:33.242Z,95697.41
2019-05-06T10:55:38.385Z,95696.91
2019-05-06T10:56:53.764Z,95701.63
2019-05-06T10:57:48.862Z,95701.25
2019-05-06T10:58:52.795Z,95699.71
2019-05-06T10:59:56.304Z,95701.41
2019-05-06T11:01:16.381Z,95705.56
2019-05-06T11:02:27.341Z,95701.47
2019-05-06T11:03:32.911Z,95709.75
2019-05-06T11:04:35.978Z,95703.79
2019-05-06T11:05:39.550Z,95696.23
2019-05-06T11:06:43.185Z,95701.08
2019-05-06T11:07:46.614Z,95697.69
2019-05-06T11:08:52.392Z,95699.39
2019-05-06T11:09:55.308Z,95701.93
2019-05-06T11:11:12.468Z,95705.33
2019-05-06T11:12:04.049Z,95693.77
2019-05-06T11:13:07.638Z,95701.40
2019-05-06T11:14:12.667Z,95705.74
2019-05-06T11:15:16.547Z,95699.05
2019-05-06T11:16:23.472Z,95700.24
2019-05-06T11:17:25.263Z,95704.05
2019-05-06T11:18:28.786Z,95701.27
2019-05-06T11:19:33.051Z,95701.28
2019-05-06T11:20:36.693Z,95704.73
2019-05-06T11:21:44.731Z,95698.61
2019-05-06T11:22:45.416Z,95700.91
2019-05-06T11:23:48.868Z,95700.48
2019-05-06T11:24:52.296Z,95695.98
2019-05-06T11:25:55.729Z,95690.20
2019-05-06T11:26:59.144Z,95699.00
2019-05-06T11:28:03.046Z,95692.27
2019-05-06T11:29:08.116Z,95693.77
2019-05-06T11:30:16.442Z,95696.91
2019-05-06T11:31:24.206Z,95687.73
2019-05-06T11:32:41.143Z,95691.77
2019-05-06T11:33:44.749Z,95686.69
2019-05-06T11:35:03.696Z,95687.63
2019-05-06T11:36:12.206Z,95691.38
2019-05-06T11:37:23.102Z,95691.22
2019-05-06T11:38:26.025Z,95689.52
2019-05-06T11:39:29.555Z,95693.41
2019-05-06T11:40:33.364Z,95691.92
2019-05-06T11:41:36.769Z,95690.07
2019-05-06T11:42:40.267Z,95690.95
2019-05-06T11:43:43.776Z,95701.95
2019-05-06T11:44:47.294Z,95699.58
2019-05-06T11:45:52.128Z,95698.23
2019-05-06T11:46:55.730Z,95697.22
2019-05-06T11:47:59.173Z,95697.59
2019-05-06T11:49:02.665Z,95698.06
2019-05-06T11:50:07.902Z,95697.67
2019-05-06T11:51:13.012Z,95696.96
2019-05-06T11:52:16.424Z,95698.61
2019-05-06T11:53:19.851Z,95702.94
2019-05-06T11:54:24.512Z,95700.37
2019-05-06T11:55:36.170Z,95706.19
2019-05-06T11:56:47.958Z,95704.02
2019-05-06T11:57:41.682Z,95700.70
2019-05-06T11:58:50.034Z,95703.90
2019-05-06T11:59:53.489Z,95701.72
2019-05-06T12:00:57.804Z,95704.20
2019-05-06T12:02:02.973Z,95709.61
2019-05-06T12:03:06.385Z,95710.90
2019-05-06T12:04:09.894Z,95708.20
2019-05-06T12:05:13.788Z,95707.26
2019-05-06T12:06:17.294Z,95715.20
2019-05-06T12:07:24.188Z,95709.56
2019-05-06T12:08:25.940Z,95711.38
2019-05-06T12:09:29.409Z,95716.05
2019-05-06T12:10:33.163Z,95713.28
2019-05-06T12:11:36.865Z,95710.53
2019-05-06T12:12:42.344Z,95714.28
2019-05-06T12:13:45.526Z,95710.59
2019-05-06T12:14:48.993Z,95714.07
2019-05-06T12:15:52.572Z,95712.69
2019-05-06T12:16:56.374Z,95711.30
2019-05-06T12:17:59.837Z,95719.84
2019-05-06T12:19:03.262Z,95718.00
2019-05-06T12:20:07.565Z,95723.09
2019-05-06T12:21:16.116Z,95714.30
2019-05-06T12:22:16.213Z,95714.69
2019-05-06T12:23:22.270Z,95720.69
2019-05-06T12:24:24.880Z,95714.84
2019-05-06T12:25:28.330Z,95722.28
2019-05-06T12:26:32.312Z,95706.67
2019-05-06T12:27:44.801Z,95713.83
2019-05-06T12:28:48.299Z,95707.58
2019-05-06T12:29:52.797Z,95712.91
2019-05-06T12:30:56.984Z,95716.69
2019-05-06T12:32:03.659Z,95718.55
2019-05-06T12:33:08.797Z,95712.76
2019-05-06T12:34:14.441Z,95713.73
2019-05-06T12:35:17.601Z,95711.84
2019-05-06T12:36:21.863Z,95714.83
2019-05-06T12:37:26.539Z,95717.22
2019-05-06T12:38:34.370Z,95714.23
2019-05-06T12:39:39.446Z,95720.45
2019-05-06T12:40:43.032Z,95729.23
2019-05-06T12:42:03.187Z,95727.30
2019-05-06T12:43:24.503Z,95718.59
2019-05-06T12:44:28.287Z,95720.06
2019-05-06T12:45:33.297Z,95721.21
2019-05-06T12:46:38.463Z,95728.47
2019-05-06T12:47:49.050Z,95724.36
2019-05-06T12:48:52.479Z,95729.08
2019-05-06T12:49:56.113Z,95722.66
2019-05-06T12:51:03.077Z,95733.14